Time;durP1;ratioP1;P1;durP2;ratioP2;P2;SDS_P1;SDS_P2;PMS_P1;PMS_P2;Temp;Humidity;BMP_temperature;BMP_pressure;BME280_temperature;BME280_humidity;BME280_pressure;Samples;Min_cycle;Max_cycle;Signal;HPM_P1;HPM_P2
2022/11/01 00:01:49;;;;;;;21.02;12.52;;;14.10;99.90;;;;;;5025201;28;20076;-60
2022/11/01 00:04:16;;;;;;;19.75;11.82;;;14.10;99.90;;;;;;5034671;28;20036;-63
2022/11/01 00:06:42;;;;;;;19.65;11.02;;;14.20;99.90;;;;;;5054566;28;20055;-62
2022/11/01 00:09:07;;;;;;;19.23;12.50;;;14.10;99.90;;;;;;5054843;28;20086;-61
2022/11/01 00:11:33;;;;;;;23.95;12.30;;;14.10;99.90;;;;;;5061066;28;20387;-62
2022/11/01 00:13:59;;;;;;;21.33;11.48;;;14.10;99.90;;;;;;5040412;28;20044;-62
2022/11/01 00:16:24;;;;;;;18.48;11.25;;;14.10;99.90;;;;;;5045611;28;20060;-62
2022/11/01 00:18:50;;;;;;;20.27;11.13;;;14.20;99.90;;;;;;5041059;28;20033;-61
2022/11/01 00:21:16;;;;;;;19.92;11.07;;;14.20;99.90;;;;;;5009004;28;20054;-62
2022/11/01 00:23:42;;;;;;;22.23;11.05;;;14.20;99.90;;;;;;5045825;28;20046;-62
2022/11/01 00:26:12;;;;;;;24.45;11.10;;;14.20;99.90;;;;;;5036642;28;20379;-61
2022/11/01 00:28:38;;;;;;;21.58;12.70;;;14.20;99.90;;;;;;5061921;28;20040;-61
2022/11/01 00:31:04;;;;;;;18.02;10.77;;;14.30;99.90;;;;;;5058529;28;20495;-62
2022/11/01 00:33:30;;;;;;;23.33;11.27;;;14.30;99.90;;;;;;5061367;28;20040;-62
2022/11/01 00:36:00;;;;;;;18.75;11.60;;;14.30;99.90;;;;;;5017023;28;20041;-61
2022/11/01 00:38:25;;;;;;;19.35;11.32;;;14.30;99.90;;;;;;5040193;28;20756;-62
2022/11/01 00:40:51;;;;;;;18.45;10.95;;;14.40;99.90;;;;;;5019736;28;20127;-61
2022/11/01 00:43:17;;;;;;;18.65;10.50;;;14.30;99.90;;;;;;5033711;28;20048;-61
2022/11/01 00:45:45;;;;;;;17.60;10.93;;;14.40;99.90;;;;;;5052801;28;20068;-62
2022/11/01 00:48:12;;;;;;;20.67;10.63;;;14.40;99.90;;;;;;5019812;28;20123;-61
2022/11/01 00:50:38;;;;;;;21.45;11.13;;;14.40;99.90;;;;;;5049655;28;20040;-62
2022/11/01 00:53:04;;;;;;;16.88;9.88;;;14.40;99.90;;;;;;5051473;28;20270;-62
2022/11/01 00:55:30;;;;;;;18.48;10.30;;;14.40;99.90;;;;;;5047163;28;20045;-61
2022/11/01 00:57:55;;;;;;;29.23;11.82;;;14.40;99.90;;;;;;5044404;28;20479;-61
2022/11/01 01:00:21;;;;;;;23.42;10.27;;;14.50;99.90;;;;;;5060012;28;20037;-61
2022/11/01 01:02:47;;;;;;;16.33;10.35;;;14.50;99.90;;;;;;5057737;28;20054;-62
2022/11/01 01:05:13;;;;;;;18.00;9.73;;;14.50;99.90;;;;;;5037559;28;20499;-62
2022/11/01 01:07:38;;;;;;;17.38;9.20;;;14.50;99.90;;;;;;5039558;28;20089;-62
2022/11/01 01:10:06;;;;;;;20.15;9.80;;;14.50;99.90;;;;;;5060557;28;20032;-60
2022/11/01 01:12:31;;;;;;;21.20;9.30;;;14.50;99.90;;;;;;5063890;28;20028;-62
2022/11/01 01:14:57;;;;;;;18.27;9.25;;;14.50;99.90;;;;;;5062625;28;20048;-60
2022/11/01 01:17:23;;;;;;;18.92;9.52;;;14.50;99.90;;;;;;5036127;28;20032;-60
2022/11/01 01:19:49;;;;;;;16.08;9.82;;;14.50;99.90;;;;;;5057036;28;20506;-62
2022/11/01 01:22:15;;;;;;;19.25;10.68;;;14.50;99.90;;;;;;5045845;28;20045;-62
2022/11/01 01:24:44;;;;;;;19.15;9.38;;;14.50;99.90;;;;;;5043078;28;20049;-61
2022/11/01 01:27:16;;;;;;;16.35;9.45;;;14.60;99.90;;;;;;5027471;28;20553;-61
2022/11/01 01:29:43;;;;;;;15.45;9.02;;;14.50;99.90;;;;;;5061851;28;20176;-62
2022/11/01 01:32:13;;;;;;;17.80;9.88;;;14.50;99.90;;;;;;5060181;28;20101;-61
2022/11/01 01:34:39;;;;;;;19.27;9.45;;;14.50;99.90;;;;;;5053220;28;20116;-61
2022/11/01 01:37:06;;;;;;;14.68;9.20;;;14.50;99.90;;;;;;5064738;28;20036;-61
2022/11/01 01:39:32;;;;;;;20.20;9.57;;;14.50;99.90;;;;;;5064937;28;20052;-62
2022/11/01 01:41:58;;;;;;;17.10;9.13;;;14.50;99.90;;;;;;5053109;28;20033;-62
2022/11/01 01:44:43;;;;;;;19.35;8.52;;;14.50;99.90;;;;;;5037793;28;20036;-62
2022/11/01 01:47:11;;;;;;;15.52;9.23;;;14.50;99.90;;;;;;5023487;28;20419;-62
2022/11/01 01:49:37;;;;;;;19.48;9.15;;;14.40;99.90;;;;;;5025191;28;20076;-62
2022/11/01 01:52:03;;;;;;;18.70;8.52;;;14.40;99.90;;;;;;5037648;28;20126;-62
2022/11/01 01:54:30;;;;;;;19.80;9.15;;;14.40;99.90;;;;;;5035232;28;20051;-62
2022/11/01 01:56:57;;;;;;;16.30;8.90;;;14.40;99.90;;;;;;5030742;28;20041;-62
2022/11/01 01:59:22;;;;;;;18.73;8.77;;;14.40;99.90;;;;;;5055279;28;20443;-61
2022/11/01 02:01:48;;;;;;;20.08;9.82;;;14.50;99.90;;;;;;5054171;28;20116;-61
2022/11/01 02:04:29;;;;;;;15.38;8.57;;;14.40;99.90;;;;;;5041182;28;20037;-62
2022/11/01 02:06:56;;;;;;;11.88;7.95;;;14.50;99.90;;;;;;5059360;28;20043;-62
2022/11/01 02:09:22;;;;;;;13.10;8.18;;;14.50;99.90;;;;;;5027799;28;20037;-62
2022/11/01 02:11:48;;;;;;;18.95;9.60;;;14.50;99.90;;;;;;5047932;28;20517;-62
2022/11/01 02:14:19;;;;;;;15.75;8.02;;;14.50;99.90;;;;;;5042394;28;20530;-63
2022/11/01 02:17:00;;;;;;;15.65;7.85;;;14.60;99.90;;;;;;5024544;28;20048;-61
2022/11/01 02:19:44;;;;;;;15.70;8.00;;;14.60;99.90;;;;;;5019705;28;20032;-63
2022/11/01 02:22:38;;;;;;;16.70;7.28;;;14.60;99.90;;;;;;5058878;28;20094;-63
2022/11/01 02:25:25;;;;;;;13.82;7.30;;;14.60;99.90;;;;;;5018796;28;20074;-61
2022/11/01 02:28:25;;;;;;;15.77;8.20;;;14.60;99.90;;;;;;5055302;28;20088;-61
2022/11/01 02:31:09;;;;;;;13.73;7.40;;;14.60;99.90;;;;;;5042764;28;20511;-63
2022/11/01 02:33:54;;;;;;;16.42;7.88;;;14.70;99.90;;;;;;5042492;28;20102;-61
2022/11/01 02:36:40;;;;;;;19.90;8.05;;;14.70;99.90;;;;;;5053704;28;20075;-62
2022/11/01 02:39:16;;;;;;;11.18;7.22;;;14.70;99.90;;;;;;5061175;28;20102;-62
2022/11/01 02:41:50;;;;;;;13.57;7.85;;;14.70;99.90;;;;;;5038023;28;20107;-61
2022/11/01 02:44:21;;;;;;;17.70;7.32;;;14.70;99.90;;;;;;5026227;28;20048;-63
2022/11/01 02:47:00;;;;;;;17.42;8.18;;;14.70;99.90;;;;;;5056437;28;20044;-61
2022/11/01 02:49:39;;;;;;;14.68;7.53;;;14.70;99.90;;;;;;5042432;28;20036;-63
2022/11/01 02:52:08;;;;;;;11.98;6.90;;;14.70;99.90;;;;;;5053963;28;20047;-62
2022/11/01 02:54:38;;;;;;;12.35;7.50;;;14.80;99.90;;;;;;5041006;28;20079;-60
2022/11/01 02:57:15;;;;;;;12.13;7.15;;;14.80;99.90;;;;;;5060000;28;20056;-61
2022/11/01 02:59:46;;;;;;;12.90;6.90;;;14.80;99.90;;;;;;5052335;28;20399;-62
2022/11/01 03:02:38;;;;;;;18.20;7.75;;;14.80;99.90;;;;;;5035291;28;20045;-62
2022/11/01 03:05:39;;;;;;;14.27;7.35;;;14.80;99.90;;;;;;5049156;28;21045;-62
2022/11/01 03:08:09;;;;;;;12.20;7.13;;;14.80;99.90;;;;;;5027157;28;20060;-61
2022/11/01 03:11:04;;;;;;;15.35;7.72;;;14.80;99.90;;;;;;5060554;28;20456;-62
2022/11/01 03:14:14;;;;;;;14.68;7.45;;;14.80;99.90;;;;;;5022327;28;20048;-62
2022/11/01 03:16:52;;;;;;;12.45;6.38;;;14.90;99.90;;;;;;5052375;28;20219;-62
2022/11/01 03:19:40;;;;;;;11.00;6.63;;;14.90;99.90;;;;;;5049600;28;20514;-62
2022/11/01 03:22:11;;;;;;;11.88;7.45;;;14.90;99.90;;;;;;5037662;28;20036;-61
2022/11/01 03:25:36;;;;;;;12.50;7.10;;;14.90;99.90;;;;;;5041774;28;20131;-62
2022/11/01 03:27:53;;;;;;;13.13;6.13;;;14.90;99.90;;;;;;5051410;28;20033;-61
2022/11/01 03:30:19;;;;;;;17.83;6.95;;;14.90;99.90;;;;;;5038541;28;20221;-62
2022/11/01 03:32:48;;;;;;;13.05;7.00;;;14.90;99.90;;;;;;5033646;28;20533;-62
2022/11/01 03:35:39;;;;;;;17.80;7.65;;;14.90;99.90;;;;;;5042394;28;20097;-62
2022/11/01 03:38:08;;;;;;;12.50;6.93;;;14.90;99.90;;;;;;5059100;28;20032;-61
2022/11/01 03:40:36;;;;;;;17.00;7.47;;;14.90;99.90;;;;;;5057288;28;20036;-63
2022/11/01 03:43:05;;;;;;;12.95;6.78;;;14.90;99.90;;;;;;5057930;28;20036;-61
2022/11/01 03:45:34;;;;;;;12.68;6.63;;;14.90;99.90;;;;;;5058102;28;20502;-62
2022/11/01 03:48:00;;;;;;;17.52;7.97;;;14.90;99.90;;;;;;5035451;28;20068;-62
2022/11/01 03:50:27;;;;;;;13.27;7.45;;;14.90;99.90;;;;;;5060299;28;20044;-62
2022/11/01 03:52:53;;;;;;;11.10;6.82;;;14.90;99.90;;;;;;5054518;28;20716;-63
2022/11/01 03:55:20;;;;;;;12.65;6.72;;;14.90;99.90;;;;;;5036541;28;20043;-62
2022/11/01 03:57:47;;;;;;;13.18;6.95;;;15.00;99.90;;;;;;5056296;28;20040;-62
2022/11/01 04:00:18;;;;;;;13.43;7.00;;;15.00;99.90;;;;;;5020495;28;20395;-62
2022/11/01 04:02:44;;;;;;;14.18;7.03;;;15.00;99.90;;;;;;5038238;28;20045;-63
2022/11/01 04:05:10;;;;;;;12.10;6.68;;;15.00;99.90;;;;;;5053005;28;21434;-62
2022/11/01 04:07:37;;;;;;;13.57;7.05;;;15.10;99.90;;;;;;5049588;28;20040;-61
2022/11/01 04:10:03;;;;;;;17.92;7.22;;;15.10;99.90;;;;;;5057139;28;20407;-62
2022/11/01 04:12:29;;;;;;;13.20;6.88;;;15.10;99.90;;;;;;5041470;28;20136;-62
2022/11/01 04:20:33;;;;;;;14.05;6.43;;;15.20;99.90;;;;;;5055208;28;20075;-63
2022/11/01 04:23:04;;;;;;;10.50;6.40;;;15.20;99.90;;;;;;5055130;28;20041;-62
2022/11/01 04:25:33;;;;;;;16.63;7.03;;;15.30;99.90;;;;;;5058234;28;20047;-61
2022/11/01 04:27:59;;;;;;;14.20;6.68;;;15.40;99.90;;;;;;5035700;28;20044;-62
2022/11/01 04:30:26;;;;;;;10.90;6.50;;;15.40;99.90;;;;;;5052961;28;20041;-62
2022/11/01 04:32:53;;;;;;;14.02;5.85;;;15.40;99.90;;;;;;5022751;28;20122;-61
2022/11/01 04:35:18;;;;;;;15.30;6.50;;;15.50;99.90;;;;;;5060652;28;20041;-63
2022/11/01 04:37:45;;;;;;;10.93;5.72;;;15.40;99.90;;;;;;5058568;28;20052;-61
2022/11/01 04:40:12;;;;;;;10.93;6.63;;;15.50;99.90;;;;;;5055247;28;20037;-61
2022/11/01 04:42:38;;;;;;;10.18;6.82;;;15.50;99.90;;;;;;5053551;28;20155;-62
2022/11/01 04:45:05;;;;;;;10.38;5.78;;;15.50;99.90;;;;;;5020619;28;20196;-62
2022/11/01 04:47:31;;;;;;;11.40;6.20;;;15.50;99.90;;;;;;5056497;28;20045;-61
2022/11/01 04:49:57;;;;;;;12.35;5.90;;;15.40;99.90;;;;;;5023332;28;20044;-61
2022/11/01 04:52:23;;;;;;;11.60;5.65;;;15.40;99.90;;;;;;5051626;28;20044;-62
2022/11/01 04:54:49;;;;;;;10.05;5.75;;;15.40;99.90;;;;;;5057881;28;20392;-63
2022/11/01 04:57:24;;;;;;;10.20;5.28;;;15.40;99.90;;;;;;5054757;28;20111;-62
2022/11/01 04:59:54;;;;;;;11.25;4.32;;;15.40;99.90;;;;;;5055861;28;20045;-61
2022/11/01 05:02:22;;;;;;;8.07;3.10;;;15.40;99.90;;;;;;5059888;28;20415;-62
2022/11/01 05:04:48;;;;;;;7.10;2.80;;;15.30;99.90;;;;;;5059414;28;20197;-63
2022/11/01 05:07:14;;;;;;;5.18;2.00;;;15.30;99.90;;;;;;5042084;28;20040;-62
2022/11/01 05:09:41;;;;;;;6.25;1.77;;;15.30;99.90;;;;;;5060847;28;20124;-61
2022/11/01 05:12:08;;;;;;;5.38;1.40;;;15.30;99.90;;;;;;5045312;22;20076;-62
2022/11/01 05:14:33;;;;;;;6.45;1.60;;;15.30;99.90;;;;;;5026766;28;20499;-61
2022/11/01 05:16:59;;;;;;;4.63;1.70;;;15.30;99.90;;;;;;5045600;28;20045;-59
2022/11/01 05:19:25;;;;;;;4.20;1.33;;;15.30;99.90;;;;;;5025042;28;20044;-64
2022/11/01 05:21:51;;;;;;;5.07;1.60;;;15.30;99.90;;;;;;5026040;28;20039;-64
2022/11/01 05:24:17;;;;;;;3.53;1.40;;;15.20;99.90;;;;;;5022673;28;20049;-63
2022/11/01 05:26:43;;;;;;;3.35;1.52;;;15.20;99.90;;;;;;5054734;28;20494;-62
2022/11/01 05:29:09;;;;;;;6.03;1.83;;;15.20;99.90;;;;;;5055834;28;20087;-60
2022/11/01 05:31:36;;;;;;;5.70;1.88;;;15.10;99.90;;;;;;5056914;28;20044;-62
2022/11/01 05:34:02;;;;;;;7.05;1.67;;;15.10;99.90;;;;;;5058807;28;20056;-65
2022/11/01 05:36:29;;;;;;;6.55;1.52;;;15.00;99.90;;;;;;5057428;28;20087;-62
2022/11/01 05:38:55;;;;;;;8.35;1.90;;;15.00;99.90;;;;;;5061488;28;20041;-61
2022/11/01 05:41:21;;;;;;;6.05;1.90;;;15.00;99.90;;;;;;5044677;28;20041;-62
2022/11/01 05:43:47;;;;;;;3.75;1.20;;;14.90;99.90;;;;;;5038158;28;20289;-64
2022/11/01 05:46:13;;;;;;;6.47;1.55;;;14.90;99.90;;;;;;5013786;28;20125;-62
2022/11/01 05:48:40;;;;;;;4.68;1.50;;;14.90;99.90;;;;;;5039510;28;20583;-61
2022/11/01 05:51:07;;;;;;;3.78;1.30;;;14.80;99.90;;;;;;5040414;28;20133;-61
2022/11/01 05:53:32;;;;;;;6.35;1.27;;;14.70;99.90;;;;;;5042691;28;20087;-63
2022/11/01 05:55:58;;;;;;;4.30;1.45;;;14.70;99.90;;;;;;5062568;28;20140;-61
2022/11/01 05:58:25;;;;;;;5.10;1.60;;;14.60;99.90;;;;;;5027357;28;20041;-61
2022/11/01 06:00:57;;;;;;;3.70;1.33;;;14.60;99.90;;;;;;5058900;28;20041;-62
2022/11/01 06:03:23;;;;;;;6.43;1.60;;;14.60;99.90;;;;;;5057625;28;20055;-61
2022/11/01 06:05:48;;;;;;;7.03;1.40;;;14.50;99.90;;;;;;5038294;28;20048;-62
2022/11/01 06:08:14;;;;;;;9.35;1.70;;;14.50;99.90;;;;;;5060578;28;20044;-64
2022/11/01 06:10:40;;;;;;;6.43;1.08;;;14.40;99.90;;;;;;5057411;28;20074;-61
2022/11/01 06:13:05;;;;;;;4.35;1.10;;;14.40;99.90;;;;;;5035816;28;20043;-62
2022/11/01 06:15:31;;;;;;;12.80;2.10;;;14.40;99.90;;;;;;5063388;28;20097;-60
2022/11/01 06:17:57;;;;;;;5.93;1.30;;;14.40;99.90;;;;;;5045951;28;20413;-61
2022/11/01 06:20:28;;;;;;;7.05;1.17;;;14.40;99.90;;;;;;5058004;28;20040;-65
2022/11/01 06:22:54;;;;;;;9.40;1.80;;;14.30;99.90;;;;;;5027904;28;20052;-61
2022/11/01 06:25:20;;;;;;;10.27;1.88;;;14.30;99.90;;;;;;5039858;28;20425;-64
2022/11/01 06:27:46;;;;;;;8.65;1.70;;;14.20;99.90;;;;;;5039835;28;20482;-59
2022/11/01 06:30:12;;;;;;;5.20;1.25;;;14.20;99.90;;;;;;5056901;28;20086;-61
2022/11/01 06:32:38;;;;;;;6.53;1.88;;;14.10;99.90;;;;;;5016934;28;20278;-62
2022/11/01 06:35:04;;;;;;;13.38;3.42;;;14.10;99.90;;;;;;5055399;28;20399;-64
2022/11/01 06:37:30;;;;;;;6.32;1.58;;;14.10;99.90;;;;;;5028873;28;20032;-64
2022/11/01 06:39:55;;;;;;;8.15;1.77;;;14.00;99.90;;;;;;5021390;28;20032;-62
2022/11/01 06:42:21;;;;;;;13.57;3.25;;;14.00;99.90;;;;;;5055467;28;20040;-62
2022/11/01 06:44:47;;;;;;;9.88;2.05;;;14.00;99.90;;;;;;5054934;28;20054;-62
2022/11/01 06:47:12;;;;;;;17.02;2.55;;;13.90;99.90;;;;;;5032735;28;20041;-65
2022/11/01 06:49:38;;;;;;;13.57;2.67;;;13.90;99.90;;;;;;5053391;28;20572;-61
2022/11/01 06:52:04;;;;;;;15.30;3.10;;;13.90;99.90;;;;;;5039204;28;20044;-61
2022/11/01 06:54:30;;;;;;;10.85;1.60;;;13.90;99.90;;;;;;5025651;28;20040;-62
2022/11/01 06:56:56;;;;;;;7.57;2.00;;;13.90;99.90;;;;;;5061235;28;20383;-60
2022/11/01 06:59:21;;;;;;;10.20;2.17;;;13.90;99.90;;;;;;5062258;28;20029;-62
2022/11/01 07:01:47;;;;;;;12.07;1.85;;;13.90;99.90;;;;;;5056722;28;20075;-65
2022/11/01 07:04:13;;;;;;;8.35;1.52;;;13.90;99.90;;;;;;5035177;28;20192;-62
2022/11/01 07:06:39;;;;;;;6.85;2.35;;;13.90;99.90;;;;;;5055714;28;20045;-62
2022/11/01 07:09:05;;;;;;;8.38;2.25;;;13.90;99.90;;;;;;5040939;28;20044;-61
2022/11/01 07:11:31;;;;;;;10.32;1.80;;;13.90;99.90;;;;;;5037580;28;20502;-63
2022/11/01 07:13:58;;;;;;;10.43;2.25;;;13.90;99.90;;;;;;5061634;28;20206;-62
2022/11/01 07:16:24;;;;;;;9.80;1.67;;;14.00;99.90;;;;;;5032218;28;20407;-64
2022/11/01 07:18:50;;;;;;;12.88;2.42;;;14.00;99.90;;;;;;5037434;28;20119;-66
2022/11/01 07:21:16;;;;;;;12.02;2.65;;;14.00;99.90;;;;;;5061169;28;20488;-62
2022/11/01 07:23:42;;;;;;;11.88;2.53;;;14.00;99.90;;;;;;5038204;28;20521;-65
2022/11/01 07:26:08;;;;;;;12.10;2.20;;;14.00;99.90;;;;;;5024235;28;20032;-64
2022/11/01 07:28:34;;;;;;;17.48;2.50;;;14.00;99.90;;;;;;5053649;28;20068;-64
2022/11/01 07:31:01;;;;;;;12.80;3.00;;;14.00;99.90;;;;;;5057895;28;20063;-61
2022/11/01 07:33:26;;;;;;;12.18;2.00;;;14.00;99.90;;;;;;5058042;28;20106;-61
2022/11/01 07:35:52;;;;;;;10.60;2.28;;;14.10;99.90;;;;;;5041022;28;20048;-62
2022/11/01 07:38:18;;;;;;;9.07;2.15;;;14.00;99.90;;;;;;5038362;28;20120;-63
2022/11/01 07:40:48;;;;;;;12.82;2.42;;;14.10;99.90;;;;;;5058193;28;20048;-63
2022/11/01 07:43:16;;;;;;;17.70;2.55;;;14.10;99.90;;;;;;5058621;28;21795;-62
2022/11/01 07:45:48;;;;;;;14.05;2.72;;;14.10;99.90;;;;;;5060787;28;20044;-59
2022/11/01 07:48:16;;;;;;;11.50;2.13;;;14.10;99.90;;;;;;5062798;28;20083;-61
2022/11/01 07:50:43;;;;;;;11.75;2.60;;;14.10;99.90;;;;;;5057396;28;20071;-62
2022/11/01 07:53:17;;;;;;;20.08;2.90;;;14.10;99.90;;;;;;5039456;28;20502;-61
2022/11/01 07:55:43;;;;;;;;;;;14.10;99.90;;;;;;5039938;28;20045;-64
2022/11/01 07:58:10;;;;;;;20.98;2.60;;;14.10;99.90;;;;;;5036482;28;20021;-59
2022/11/01 08:00:36;;;;;;;13.88;3.20;;;14.10;99.90;;;;;;5049559;28;20510;-62
2022/11/01 08:03:05;;;;;;;11.40;2.85;;;13.90;99.90;;;;;;5033445;28;20048;-64
2022/11/01 08:05:32;;;;;;;17.75;2.50;;;14.10;99.90;;;;;;5034436;28;20117;-59
2022/11/01 08:07:58;;;;;;;10.15;2.67;;;14.10;99.90;;;;;;5057480;28;20043;-62
2022/11/01 08:10:25;;;;;;;10.70;3.05;;;14.10;99.90;;;;;;5056043;28;20033;-63
2022/11/01 08:12:50;;;;;;;12.43;2.47;;;14.10;99.90;;;;;;5040639;28;20961;-62
2022/11/01 08:15:16;;;;;;;15.70;3.03;;;14.10;99.90;;;;;;5062982;28;20039;-62
2022/11/01 08:17:42;;;;;;;16.42;3.25;;;14.00;99.90;;;;;;5055533;28;20538;-62
2022/11/01 08:20:08;;;;;;;17.05;2.83;;;14.00;99.90;;;;;;5039011;28;20033;-61
2022/11/01 08:22:38;;;;;;;13.00;2.55;;;14.10;99.90;;;;;;5056033;28;21104;-62
2022/11/01 08:25:04;;;;;;;11.90;2.22;;;14.10;99.90;;;;;;5031120;28;20163;-62
2022/11/01 08:27:29;;;;;;;15.40;3.15;;;14.10;99.90;;;;;;5038467;28;20098;-62
2022/11/01 08:29:55;;;;;;;16.92;3.30;;;14.10;99.90;;;;;;5051759;28;20040;-63
2022/11/01 08:32:21;;;;;;;13.55;2.92;;;14.10;99.90;;;;;;5021237;28;20049;-58
2022/11/01 08:34:47;;;;;;;23.25;4.30;;;14.20;99.90;;;;;;5057605;28;20545;-62
2022/11/01 08:37:13;;;;;;;13.45;3.08;;;14.20;99.90;;;;;;5041270;28;20604;-60
2022/11/01 08:39:38;;;;;;;19.48;4.03;;;14.20;99.90;;;;;;5061692;28;20047;-61
2022/11/01 08:42:04;;;;;;;24.67;3.88;;;14.20;99.90;;;;;;5052145;28;20036;-64
2022/11/01 08:44:33;;;;;;;13.15;3.80;;;14.20;99.90;;;;;;5019316;28;20041;-64
2022/11/01 08:47:00;;;;;;;19.77;4.28;;;14.20;99.90;;;;;;5050840;28;20555;-62
2022/11/01 08:49:27;;;;;;;16.42;3.58;;;14.20;99.90;;;;;;5059290;28;20032;-61
2022/11/01 08:51:53;;;;;;;16.40;3.53;;;14.20;99.90;;;;;;5063168;28;20497;-62
2022/11/01 08:54:19;;;;;;;17.00;3.40;;;14.20;99.90;;;;;;5055276;28;20094;-63
2022/11/01 08:56:44;;;;;;;25.83;3.95;;;14.20;99.90;;;;;;5064397;28;20101;-62
2022/11/01 08:59:10;;;;;;;23.13;4.05;;;14.30;99.90;;;;;;5057665;28;20079;-62
2022/11/01 09:01:37;;;;;;;19.15;3.65;;;14.40;99.90;;;;;;5064311;28;20040;-59
2022/11/01 09:04:03;;;;;;;20.88;4.60;;;14.40;99.90;;;;;;5058366;28;20099;-60
2022/11/01 09:06:29;;;;;;;24.42;4.55;;;14.50;99.90;;;;;;5047581;28;20040;-61
2022/11/01 09:08:55;;;;;;;21.42;4.20;;;14.50;99.90;;;;;;5046773;28;20044;-61
2022/11/01 09:11:23;;;;;;;17.83;2.97;;;14.60;99.90;;;;;;5036712;28;20513;-60
2022/11/01 09:13:49;;;;;;;17.30;3.67;;;14.60;99.90;;;;;;5046621;28;20048;-62
2022/11/01 09:16:15;;;;;;;14.52;3.60;;;14.70;99.90;;;;;;5069976;28;20099;-61
2022/11/01 09:18:42;;;;;;;18.73;2.80;;;14.80;99.90;;;;;;5056050;28;20040;-63
2022/11/01 09:21:08;;;;;;;21.40;3.75;;;14.80;99.90;;;;;;5053567;28;20041;-61
2022/11/01 09:23:34;;;;;;;20.73;3.75;;;14.70;99.90;;;;;;5044700;28;20036;-61
2022/11/01 09:26:06;;;;;;;15.65;3.10;;;14.70;99.90;;;;;;5058005;28;20495;-63
2022/11/01 09:28:32;;;;;;;18.65;4.15;;;14.70;99.90;;;;;;5055415;28;20098;-64
2022/11/01 09:31:06;;;;;;;18.55;3.60;;;14.70;99.90;;;;;;5040726;28;20040;-61
2022/11/01 09:33:34;;;;;;;18.13;4.00;;;14.70;99.90;;;;;;5049388;22;20054;-82
2022/11/01 09:36:01;;;;;;;20.75;3.63;;;14.70;99.90;;;;;;5020949;28;20038;-83
2022/11/01 09:38:34;;;;;;;20.65;4.18;;;14.90;99.90;;;;;;5026782;28;20107;-84
2022/11/01 09:41:11;;;;;;;11.95;3.15;;;15.20;99.90;;;;;;5026079;28;20045;-83
2022/11/01 09:43:39;;;;;;;17.02;3.45;;;14.70;99.90;;;;;;5060811;28;20391;-83
2022/11/01 09:46:06;;;;;;;17.92;3.67;;;14.90;99.90;;;;;;5060984;28;20041;-85
2022/11/01 09:48:35;;;;;;;18.63;4.28;;;15.00;99.90;;;;;;5066641;28;20551;-85
2022/11/01 09:51:06;;;;;;;15.98;3.42;;;15.10;99.90;;;;;;5046795;28;20064;-83
2022/11/01 09:53:34;;;;;;;22.33;3.45;;;15.10;99.90;;;;;;5065623;28;20126;-80
2022/11/01 09:56:11;;;;;;;16.10;3.08;;;15.00;99.90;;;;;;5013745;28;20069;-79
2022/11/01 09:59:14;;;;;;;21.38;4.18;;;15.00;99.90;;;;;;5056035;28;20076;-82
2022/11/01 10:01:40;;;;;;;19.85;4.20;;;15.00;99.90;;;;;;5048917;28;20041;-84
2022/11/01 10:04:47;;;;;;;18.95;3.33;;;14.90;99.90;;;;;;5045947;28;20075;-81
2022/11/01 10:07:26;;;;;;;21.58;3.33;;;15.10;99.90;;;;;;5048915;28;20049;-82
2022/11/01 10:10:04;;;;;;;22.52;4.68;;;15.10;99.90;;;;;;5068073;28;20110;-79
2022/11/01 10:12:53;;;;;;;14.40;2.88;;;15.00;99.90;;;;;;5035503;28;20041;-79
2022/11/01 10:15:27;;;;;;;18.73;3.33;;;15.10;99.90;;;;;;5028128;28;20053;-79
2022/11/01 10:17:57;;;;;;;22.90;4.53;;;15.20;99.90;;;;;;5030321;28;20033;-82
2022/11/01 10:20:33;;;;;;;16.42;3.17;;;15.30;99.90;;;;;;5045193;28;20040;-80
2022/11/01 10:23:05;;;;;;;17.15;3.72;;;15.40;99.90;;;;;;5058806;28;20132;-84
2022/11/01 10:25:42;;;;;;;15.75;2.95;;;15.40;99.90;;;;;;5017343;28;20037;-80
2022/11/01 10:28:14;;;;;;;14.00;2.55;;;15.40;99.90;;;;;;5048217;28;20095;-81
2022/11/01 10:30:47;;;;;;;17.15;4.65;;;15.40;99.90;;;;;;5044594;28;21304;-81
2022/11/01 10:33:37;;;;;;;14.82;3.45;;;15.30;99.90;;;;;;5032365;28;20590;-84
2022/11/01 10:36:09;;;;;;;17.77;3.60;;;15.30;99.90;;;;;;5049952;28;20041;-82
2022/11/01 10:38:42;;;;;;;13.18;2.90;;;15.60;99.90;;;;;;5065856;28;20402;-79
2022/11/01 10:41:31;;;;;;;19.67;3.47;;;15.20;99.90;;;;;;5048146;28;20033;-81
2022/11/01 10:44:01;;;;;;;16.08;3.92;;;15.20;99.90;;;;;;5044676;28;20037;-82
2022/11/01 10:46:32;;;;;;;16.15;2.92;;;15.10;99.90;;;;;;5034008;28;20485;-82
2022/11/01 10:49:13;;;;;;;11.82;3.30;;;15.00;99.90;;;;;;5032651;28;20037;-78
2022/11/01 10:51:40;;;;;;;19.67;3.28;;;14.90;99.90;;;;;;5046153;28;20049;-79
2022/11/01 10:54:12;;;;;;;12.15;2.97;;;14.90;99.90;;;;;;5047680;28;20560;-81
2022/11/01 10:56:50;;;;;;;23.67;4.03;;;14.90;99.90;;;;;;5043539;28;20041;-77
2022/11/01 10:59:45;;;;;;;13.68;3.15;;;14.90;99.90;;;;;;5068704;28;20508;-82
2022/11/01 11:02:28;;;;;;;16.30;2.88;;;14.90;99.90;;;;;;5020846;28;20098;-78
2022/11/01 11:04:55;;;;;;;10.85;3.72;;;15.00;99.90;;;;;;5032449;28;20040;-81
2022/11/01 11:07:22;;;;;;;18.38;3.70;;;15.00;99.90;;;;;;5035703;28;20043;-78
2022/11/01 11:09:49;;;;;;;18.13;3.80;;;15.00;99.90;;;;;;5027161;28;20072;-81
2022/11/01 11:12:21;;;;;;;14.13;3.25;;;14.90;99.90;;;;;;5051442;28;20044;-80
2022/11/01 11:14:52;;;;;;;15.23;3.47;;;14.90;99.90;;;;;;5042793;22;20068;-61
2022/11/01 11:17:27;;;;;;;14.88;3.53;;;14.90;99.90;;;;;;5034395;28;20048;-60
2022/11/01 11:19:53;;;;;;;14.32;3.35;;;14.90;99.90;;;;;;5040644;28;20642;-60
2022/11/01 11:22:21;;;;;;;15.07;3.60;;;14.90;99.90;;;;;;5035625;28;20048;-61
2022/11/01 11:24:48;;;;;;;13.82;3.90;;;15.00;99.90;;;;;;5021783;28;20039;-61
2022/11/01 11:27:26;;;;;;;13.40;3.00;;;15.30;99.90;;;;;;5054415;28;20044;-62
2022/11/01 11:30:07;;;;;;;20.40;3.88;;;15.50;99.90;;;;;;5040240;28;20039;-60
2022/11/01 11:32:37;;;;;;;17.23;3.53;;;15.70;99.90;;;;;;5056085;28;20041;-60
2022/11/01 11:35:07;;;;;;;12.98;2.83;;;15.80;99.90;;;;;;5047395;28;20129;-61
2022/11/01 11:37:37;;;;;;;14.93;2.55;;;15.90;99.90;;;;;;5044196;28;20597;-60
2022/11/01 11:40:23;;;;;;;13.65;3.17;;;16.00;99.90;;;;;;5047921;28;20055;-60
2022/11/01 11:42:51;;;;;;;15.63;3.00;;;16.10;99.90;;;;;;5051655;28;20044;-61
2022/11/01 11:45:26;;;;;;;20.48;3.97;;;16.10;99.90;;;;;;5037975;28;20384;-61
2022/11/01 11:47:53;;;;;;;12.10;2.70;;;16.10;99.90;;;;;;5066153;28;20475;-61
2022/11/01 11:50:22;;;;;;;12.30;3.10;;;16.00;99.90;;;;;;5067459;28;20044;-61
2022/11/01 11:53:17;;;;;;;9.15;2.42;;;16.00;99.90;;;;;;5060837;28;20036;-61
2022/11/01 11:55:52;;;;;;;16.92;3.17;;;15.90;99.90;;;;;;5057256;28;20037;-61
2022/11/01 11:58:26;;;;;;;15.68;3.47;;;15.80;99.90;;;;;;5070445;28;20052;-61
2022/11/01 12:00:58;;;;;;;11.23;2.40;;;16.00;99.90;;;;;;5060572;28;20076;-61
2022/11/01 12:03:24;;;;;;;14.52;2.95;;;16.10;99.90;;;;;;5056515;28;20123;-60
2022/11/01 12:05:53;;;;;;;12.32;2.55;;;16.10;99.90;;;;;;5061091;28;20127;-62
2022/11/01 12:08:47;;;;;;;19.50;3.55;;;15.90;99.90;;;;;;5059228;28;20040;-61
2022/11/01 12:11:14;;;;;;;15.67;2.57;;;16.00;99.90;;;;;;5061261;28;20043;-61
2022/11/01 12:14:02;;;;;;;17.50;3.30;;;15.90;99.90;;;;;;5047308;28;20295;-60
2022/11/01 12:16:28;;;;;;;13.57;2.30;;;15.80;99.90;;;;;;5058782;28;20053;-61
2022/11/01 12:19:01;;;;;;;11.65;3.25;;;15.70;99.90;;;;;;5046332;28;20044;-59
2022/11/01 12:21:39;;;;;;;13.35;2.88;;;15.90;99.90;;;;;;5051511;28;20032;-61
2022/11/01 12:24:17;;;;;;;8.27;2.45;;;16.00;99.90;;;;;;5033859;28;20095;-61
2022/11/01 12:26:44;;;;;;;13.35;2.90;;;16.10;99.90;;;;;;5055767;28;20044;-61
2022/11/01 12:29:33;;;;;;;17.35;3.30;;;16.20;99.90;;;;;;5057534;28;20106;-62
2022/11/01 12:32:13;;;;;;;9.65;2.30;;;16.20;99.90;;;;;;5040783;28;20059;-60
2022/11/01 12:34:41;;;;;;;17.10;2.53;;;16.20;99.90;;;;;;5043674;28;20055;-61
2022/11/01 12:37:22;;;;;;;17.20;2.83;;;16.10;99.90;;;;;;5053367;28;20040;-61
2022/11/01 12:40:17;;;;;;;12.88;3.42;;;16.10;99.90;;;;;;5056961;28;20090;-62
2022/11/01 12:42:55;;;;;;;21.75;3.30;;;16.00;99.90;;;;;;5053834;28;20045;-60
2022/11/01 12:45:40;;;;;;;11.88;2.65;;;15.90;99.90;;;;;;5059769;28;20410;-61
2022/11/01 12:48:10;;;;;;;20.27;3.47;;;16.00;99.90;;;;;;5047683;28;20395;-61
2022/11/01 12:50:41;;;;;;;15.23;3.13;;;16.00;99.90;;;;;;5048862;28;20052;-61
2022/11/01 12:53:15;;;;;;;13.43;2.38;;;16.00;99.90;;;;;;5041976;28;20055;-61
2022/11/01 12:55:41;;;;;;;10.98;2.70;;;16.00;99.90;;;;;;5043203;28;20060;-61
2022/11/01 12:58:16;;;;;;;13.73;3.08;;;16.10;99.90;;;;;;5063135;28;20483;-62
2022/11/01 13:00:59;;;;;;;9.77;1.90;;;16.20;99.90;;;;;;5065693;28;20078;-61